createdAt,value
2018-08-17T00:01:46.636Z,19.11
2018-08-17T00:04:15.183Z,19.06
2018-08-17T00:06:42.784Z,19.00
2018-08-17T00:09:11.293Z,18.92
2018-08-17T00:11:40.251Z,18.84
2018-08-17T00:14:08.378Z,18.75
2018-08-17T00:16:35.971Z,18.69
2018-08-17T00:19:04.303Z,18.62
2018-08-17T00:21:32.202Z,18.56
2018-08-17T00:24:01.155Z,18.49
2018-08-17T00:26:29.579Z,18.44
2018-08-17T00:29:03.911Z,18.40
2018-08-17T00:31:32.094Z,18.37
2018-08-17T00:34:00.538Z,18.36
2018-08-17T00:36:28.199Z,18.35
2018-08-17T00:38:55.819Z,18.33
2018-08-17T00:41:23.640Z,18.29
2018-08-17T00:43:53.078Z,18.24
2018-08-17T00:46:20.970Z,18.22
2018-08-17T00:48:48.571Z,18.18
2018-08-17T00:51:16.158Z,18.13
2018-08-17T00:53:43.730Z,18.07
2018-08-17T00:56:12.427Z,18.02
2018-08-17T00:58:40.015Z,17.96
2018-08-17T01:01:07.607Z,17.92
2018-08-17T01:03:35.491Z,17.89
2018-08-17T01:06:03.287Z,17.89
2018-08-17T01:08:30.879Z,17.93
2018-08-17T01:10:58.475Z,17.99
2018-08-17T01:13:26.338Z,18.04
2018-08-17T01:15:54.009Z,18.10
2018-08-17T01:18:22.596Z,18.15
2018-08-17T01:20:50.618Z,18.23
2018-08-17T01:23:18.230Z,18.31
2018-08-17T01:25:46.802Z,18.36
2018-08-17T01:28:14.547Z,18.40
2018-08-17T01:30:42.435Z,18.44
2018-08-17T01:33:10.119Z,18.49
2018-08-17T01:35:38.411Z,18.55
2018-08-17T01:38:06.597Z,18.59
2018-08-17T01:40:34.210Z,18.65
2018-08-17T01:43:01.863Z,18.68
2018-08-17T01:45:29.515Z,18.72
2018-08-17T01:47:58.379Z,18.74
2018-08-17T01:50:25.987Z,18.77
2018-08-17T01:52:53.625Z,18.82
2018-08-17T01:55:21.272Z,18.83
2018-08-17T01:57:49.238Z,18.82
2018-08-17T02:00:17.570Z,18.80
2018-08-17T02:02:45.190Z,18.79
2018-08-17T02:05:12.802Z,18.82
2018-08-17T02:07:40.695Z,18.84
2018-08-17T02:10:09.770Z,18.87
2018-08-17T02:12:37.655Z,18.92
2018-08-17T02:15:05.274Z,18.97
2018-08-17T02:17:33.169Z,19.03
2018-08-17T02:20:00.806Z,19.11
2018-08-17T02:22:28.500Z,19.19
2018-08-17T02:24:56.142Z,19.21
2018-08-17T02:27:25.003Z,19.21
2018-08-17T02:29:53.391Z,19.19
2018-08-17T02:32:21.055Z,19.13
2018-08-17T02:34:48.680Z,19.08
2018-08-17T02:37:16.704Z,19.00
2018-08-17T02:39:44.918Z,18.93
2018-08-17T02:42:12.540Z,18.89
2018-08-17T02:44:40.179Z,18.90
2018-08-17T02:47:08.179Z,18.94
2018-08-17T02:49:35.806Z,18.97
2018-08-17T02:52:03.489Z,19.03
2018-08-17T02:54:31.103Z,19.09
2018-08-17T02:56:58.970Z,19.15
2018-08-17T02:59:26.647Z,19.17
2018-08-17T03:01:54.218Z,19.17
2018-08-17T03:04:21.822Z,19.12
2018-08-17T03:06:49.719Z,19.05
2018-08-17T03:09:17.400Z,18.99
2018-08-17T03:11:45.039Z,18.99
2018-08-17T03:14:12.672Z,19.00
2018-08-17T03:16:40.331Z,19.01
2018-08-17T03:19:07.927Z,19.00
2018-08-17T03:21:35.794Z,18.97
2018-08-17T03:24:03.390Z,18.95
2018-08-17T03:26:31.009Z,18.92
2018-08-17T03:28:59.015Z,18.90
2018-08-17T03:31:26.635Z,18.85
2018-08-17T03:33:54.338Z,18.80
2018-08-17T03:36:22.570Z,18.77
2018-08-17T03:38:50.519Z,18.75
2018-08-17T03:41:18.132Z,18.76
2018-08-17T03:43:46.340Z,18.79
2018-08-17T03:46:13.975Z,18.79
2018-08-17T03:48:41.874Z,18.81
2018-08-17T03:51:09.503Z,18.81
2018-08-17T03:53:37.126Z,18.84
2018-08-17T03:56:05.061Z,18.83
2018-08-17T03:58:32.712Z,18.80
2018-08-17T04:01:00.392Z,18.77
2018-08-17T04:03:27.992Z,18.74
2018-08-17T04:05:55.897Z,18.70
2018-08-17T04:08:23.496Z,18.67
2018-08-17T04:10:51.124Z,18.66
2018-08-17T04:13:19.267Z,18.67
2018-08-17T04:15:47.142Z,18.67
2018-08-17T04:18:14.753Z,18.66
2018-08-17T04:20:42.396Z,18.68
2018-08-17T04:23:09.992Z,18.67
2018-08-17T04:25:37.870Z,18.67
2018-08-17T04:28:05.511Z,18.65
2018-08-17T04:30:33.213Z,18.65
2018-08-17T04:33:01.218Z,18.65
2018-08-17T04:35:30.114Z,18.67
2018-08-17T04:37:57.731Z,18.64
2018-08-17T04:40:26.031Z,18.67
2018-08-17T04:42:53.678Z,18.69
2018-08-17T04:45:21.573Z,18.67
2018-08-17T04:47:49.985Z,18.63
2018-08-17T04:50:17.599Z,18.61
2018-08-17T04:52:46.087Z,18.59
2018-08-17T04:55:14.067Z,18.61
2018-08-17T04:57:41.663Z,18.62
2018-08-17T05:00:10.078Z,18.63
2018-08-17T05:02:38.210Z,18.68
2018-08-17T05:05:05.839Z,18.74
2018-08-17T05:07:33.507Z,18.79
2018-08-17T05:10:01.124Z,18.88
2018-08-17T05:12:29.338Z,18.99
2018-08-17T05:14:57.222Z,19.08
2018-08-17T05:17:24.847Z,19.19
2018-08-17T05:19:52.473Z,19.28
2018-08-17T05:22:20.350Z,19.38
2018-08-17T05:24:47.935Z,19.44
2018-08-17T05:27:16.538Z,19.51
2018-08-17T05:29:45.256Z,19.56
2018-08-17T05:32:12.862Z,19.61
2018-08-17T05:34:40.476Z,19.68
2018-08-17T05:37:08.352Z,19.73
2018-08-17T05:39:37.560Z,19.79
2018-08-17T05:42:05.188Z,19.84
2018-08-17T05:44:33.092Z,19.91
2018-08-17T05:47:00.711Z,19.96
2018-08-17T05:49:28.311Z,20.02
2018-08-17T05:51:56.202Z,20.06
2018-08-17T05:54:23.800Z,20.08
2018-08-17T05:56:51.423Z,20.14
2018-08-17T05:59:19.439Z,20.20
2018-08-17T06:01:47.322Z,20.18
2018-08-17T06:04:14.988Z,20.17
2018-08-17T06:06:42.902Z,20.15
2018-08-17T06:09:10.923Z,20.14
2018-08-17T06:11:38.915Z,20.10
2018-08-17T06:14:06.970Z,20.02
2018-08-17T06:16:34.600Z,20.00
2018-08-17T06:19:02.183Z,19.99
2018-08-17T06:21:30.071Z,20.01
2018-08-17T06:23:57.694Z,20.07
2018-08-17T06:26:25.327Z,20.14
2018-08-17T06:28:53.204Z,20.18
2018-08-17T06:31:20.870Z,20.22
2018-08-17T06:33:49.539Z,20.27
2018-08-17T06:36:17.469Z,20.31
2018-08-17T06:38:45.118Z,20.32
2018-08-17T06:41:12.751Z,20.30
2018-08-17T06:43:45.557Z,20.29
2018-08-17T06:46:13.387Z,20.27
2018-08-17T06:48:41.008Z,20.25
2018-08-17T06:51:08.889Z,20.20
2018-08-17T06:53:36.542Z,20.16
2018-08-17T06:56:04.115Z,20.12
2018-08-17T06:58:31.990Z,20.06
2018-08-17T07:00:59.603Z,19.98
2018-08-17T07:03:27.190Z,19.90
2018-08-17T07:05:55.105Z,19.82
2018-08-17T07:08:23.514Z,19.76
2018-08-17T07:10:53.078Z,19.74
2018-08-17T07:13:21.049Z,19.74
2018-08-17T07:15:49.299Z,19.75
2018-08-17T07:18:16.925Z,19.73
2018-08-17T07:20:44.913Z,19.71
2018-08-17T07:23:12.538Z,19.66
2018-08-17T07:25:40.219Z,19.61
2018-08-17T07:28:09.385Z,19.39
2018-08-17T07:30:37.062Z,19.15
2018-08-17T07:33:06.609Z,18.94
2018-08-17T07:35:34.718Z,18.82
2018-08-17T07:38:04.034Z,18.66
2018-08-17T07:40:32.885Z,18.54
2018-08-17T07:43:03.853Z,18.44
2018-08-17T07:45:31.474Z,18.40
2018-08-17T07:47:59.938Z,18.38
2018-08-17T07:50:29.367Z,18.41
2018-08-17T07:52:56.969Z,18.46
2018-08-17T07:55:24.605Z,18.57
2018-08-17T07:57:52.495Z,18.66
2018-08-17T08:00:20.143Z,18.72
2018-08-17T08:02:48.478Z,18.77
2018-08-17T08:05:16.655Z,18.79
2018-08-17T08:07:45.066Z,18.84
2018-08-17T08:10:12.885Z,18.85
2018-08-17T08:12:47.370Z,18.87
2018-08-17T08:15:14.990Z,18.88
2018-08-17T08:17:42.658Z,18.92
2018-08-17T08:20:11.269Z,18.96
2018-08-17T08:22:38.980Z,19.03
2018-08-17T08:25:07.255Z,19.09
2018-08-17T08:27:37.670Z,19.07
2018-08-17T08:30:05.927Z,19.08
2018-08-17T08:32:34.150Z,19.15
2018-08-17T08:35:02.264Z,19.25
2018-08-17T08:37:29.896Z,19.35
2018-08-17T08:39:57.620Z,19.46
2018-08-17T08:42:25.507Z,19.61
2018-08-17T08:44:53.127Z,19.77
2018-08-17T08:47:20.749Z,19.95
2018-08-17T08:49:48.723Z,20.12
2018-08-17T08:52:16.312Z,20.24
2018-08-17T08:54:43.922Z,20.37
2018-08-17T08:57:11.814Z,20.44
2018-08-17T08:59:39.506Z,20.51
2018-08-17T09:02:07.659Z,20.55
2018-08-17T09:04:35.564Z,20.55
2018-08-17T09:07:03.234Z,20.64
2018-08-17T09:09:32.477Z,20.76
2018-08-17T09:12:00.980Z,20.89
2018-08-17T09:14:28.595Z,21.01
2018-08-17T09:16:56.509Z,21.13
2018-08-17T09:19:25.391Z,21.24
2018-08-17T09:21:54.136Z,21.35
2018-08-17T09:24:22.065Z,21.54
2018-08-17T09:26:53.248Z,21.72
2018-08-17T09:29:22.248Z,21.93
2018-08-17T09:31:53.860Z,22.05
2018-08-17T09:34:21.462Z,22.19
2018-08-17T09:36:49.264Z,22.42
2018-08-17T09:39:18.876Z,22.66
2018-08-17T09:41:46.775Z,22.96
2018-08-17T09:44:14.512Z,23.29
2018-08-17T09:46:42.418Z,23.64
2018-08-17T09:49:10.049Z,24.04
2018-08-17T09:51:38.374Z,24.46
2018-08-17T09:54:07.327Z,24.65
2018-08-17T09:56:35.758Z,24.82
2018-08-17T09:59:03.406Z,25.08
2018-08-17T10:01:36.247Z,25.41
2018-08-17T10:04:08.990Z,25.55
2018-08-17T10:06:41.856Z,25.72
2018-08-17T10:09:16.257Z,25.97
2018-08-17T10:11:43.930Z,26.01
2018-08-17T10:14:11.847Z,26.17
2018-08-17T10:16:39.450Z,26.44
2018-08-17T10:19:07.041Z,26.67
2018-08-17T10:21:40.315Z,27.06
2018-08-17T10:24:07.647Z,27.71
2018-08-17T10:26:35.250Z,28.03
2018-08-17T10:29:03.834Z,27.93
2018-08-17T10:31:34.703Z,27.82
2018-08-17T10:34:02.680Z,27.35
2018-08-17T10:36:31.584Z,26.88
2018-08-17T10:39:00.901Z,26.57
2018-08-17T10:41:28.511Z,26.38
2018-08-17T10:43:57.534Z,26.26
2018-08-17T10:46:25.952Z,25.92
2018-08-17T10:48:53.742Z,25.51
2018-08-17T10:51:23.652Z,25.19
2018-08-17T10:53:52.274Z,24.91
2018-08-17T10:56:19.880Z,24.66
2018-08-17T10:58:47.770Z,24.40
2018-08-17T11:01:16.092Z,24.17
2018-08-17T11:03:45.398Z,24.01
2018-08-17T11:06:13.290Z,23.88
2018-08-17T11:08:40.901Z,23.87
2018-08-17T11:11:08.700Z,23.99
2018-08-17T11:13:36.656Z,24.03
2018-08-17T11:16:04.816Z,24.03
2018-08-17T11:18:36.071Z,24.01
2018-08-17T11:21:04.936Z,23.95
2018-08-17T11:23:32.569Z,23.78
2018-08-17T11:26:00.847Z,23.56
2018-08-17T11:28:30.900Z,23.37
2018-08-17T11:30:58.571Z,23.19
2018-08-17T11:33:28.782Z,23.08
2018-08-17T11:35:57.184Z,23.03
2018-08-17T11:38:28.501Z,22.95
2018-08-17T11:40:58.905Z,22.90
2018-08-17T11:43:27.644Z,22.88
2018-08-17T11:45:55.681Z,22.94
2018-08-17T11:48:28.360Z,23.02
2018-08-17T11:50:56.540Z,23.00
2018-08-17T11:53:24.264Z,23.03
2018-08-17T11:55:52.739Z,23.06
2018-08-17T11:58:20.840Z,23.03
2018-08-17T12:00:52.476Z,23.06
2018-08-17T12:03:20.108Z,23.11
2018-08-17T12:05:48.043Z,23.09
2018-08-17T12:08:16.566Z,22.99
2018-08-17T12:10:44.616Z,22.92
2018-08-17T12:13:18.693Z,22.87
2018-08-17T12:15:51.263Z,22.88
2018-08-17T12:18:21.637Z,22.85
2018-08-17T12:20:50.223Z,22.76
2018-08-17T12:23:17.907Z,22.68
2018-08-17T12:25:52.066Z,22.67
2018-08-17T12:28:19.768Z,22.74
2018-08-17T12:30:47.740Z,22.83
2018-08-17T12:33:24.376Z,22.93
2018-08-17T12:35:52.336Z,22.96
2018-08-17T12:38:20.038Z,23.04
2018-08-17T12:40:49.710Z,23.14
2018-08-17T12:43:19.031Z,23.27
2018-08-17T12:45:49.332Z,23.50
2018-08-17T12:48:17.939Z,23.69
2018-08-17T12:50:45.970Z,23.77
2018-08-17T12:53:14.550Z,23.81
2018-08-17T12:55:44.359Z,24.15
2018-08-17T12:58:15.904Z,24.62
2018-08-17T13:00:43.579Z,24.86
2018-08-17T13:03:11.769Z,24.91
2018-08-17T13:05:39.426Z,25.03
2018-08-17T13:08:07.882Z,24.94
2018-08-17T13:10:35.875Z,24.80
2018-08-17T13:13:09.300Z,24.66
2018-08-17T13:15:38.103Z,24.59
2018-08-17T13:18:11.622Z,24.60
2018-08-17T13:20:44.538Z,24.73
2018-08-17T13:23:12.264Z,24.91
2018-08-17T13:25:40.532Z,25.31
2018-08-17T13:28:08.216Z,25.39
2018-08-17T13:30:36.098Z,25.31
2018-08-17T13:33:03.732Z,25.19
2018-08-17T13:35:31.397Z,25.20
2018-08-17T13:37:59.284Z,25.52
2018-08-17T13:40:27.830Z,25.74
2018-08-17T13:42:55.511Z,25.77
2018-08-17T13:45:23.491Z,26.05
2018-08-17T13:47:51.148Z,26.44
2018-08-17T13:50:19.991Z,26.49
2018-08-17T13:52:48.611Z,26.31
2018-08-17T13:55:16.294Z,26.21
2018-08-17T13:57:43.963Z,26.09
2018-08-17T14:00:12.259Z,26.12
2018-08-17T14:02:41.735Z,26.42
2018-08-17T14:05:09.700Z,26.41
2018-08-17T14:07:37.767Z,26.47
2018-08-17T14:10:05.443Z,26.38
2018-08-17T14:12:33.308Z,26.21
2018-08-17T14:15:01.279Z,26.14
2018-08-17T14:17:29.625Z,26.09
2018-08-17T14:19:58.840Z,25.98
2018-08-17T14:22:26.771Z,25.87
2018-08-17T14:24:54.397Z,25.81
2018-08-17T14:27:22.834Z,25.64
2018-08-17T14:29:50.752Z,25.41
2018-08-17T14:32:19.615Z,25.11
2018-08-17T14:34:48.240Z,24.99
2018-08-17T14:37:16.101Z,24.91
2018-08-17T14:39:44.477Z,24.85
2018-08-17T14:42:12.515Z,24.74
2018-08-17T14:44:40.381Z,24.54
2018-08-17T14:47:08.020Z,24.32
2018-08-17T14:49:35.626Z,24.16
2018-08-17T14:52:05.374Z,24.08
2018-08-17T14:54:36.547Z,24.00
2018-08-17T14:57:07.819Z,23.97
2018-08-17T14:59:35.716Z,23.95
2018-08-17T15:02:04.139Z,23.89
2018-08-17T15:04:31.826Z,23.78
2018-08-17T15:06:59.941Z,23.72
2018-08-17T15:09:28.082Z,23.74
2018-08-17T15:11:55.736Z,23.73
2018-08-17T15:14:24.451Z,23.68
2018-08-17T15:16:52.261Z,23.62
2018-08-17T15:19:19.871Z,23.59
2018-08-17T15:21:47.828Z,23.56
2018-08-17T15:24:16.396Z,23.62
2018-08-17T15:26:44.108Z,23.74
2018-08-17T15:29:12.058Z,23.78
2018-08-17T15:31:39.717Z,23.74
2018-08-17T15:34:07.330Z,23.67
2018-08-17T15:36:36.428Z,23.60
2018-08-17T15:39:04.652Z,23.57
2018-08-17T15:41:37.260Z,23.65
2018-08-17T15:44:05.760Z,23.88
2018-08-17T15:46:33.668Z,23.90
2018-08-17T15:49:02.315Z,23.91
2018-08-17T15:51:31.647Z,23.89
2018-08-17T15:53:59.251Z,23.88
2018-08-17T15:56:27.908Z,24.16
2018-08-17T15:58:56.469Z,24.56
2018-08-17T16:01:24.154Z,24.76
2018-08-17T16:03:53.431Z,24.70
2018-08-17T16:06:21.671Z,24.55
2018-08-17T16:08:49.487Z,24.51
2018-08-17T16:11:17.406Z,25.30
2018-08-17T16:13:46.732Z,26.53
2018-08-17T16:16:15.338Z,27.64
2018-08-17T16:18:47.337Z,28.51
2018-08-17T16:21:14.992Z,29.24
2018-08-17T16:23:42.640Z,29.52
2018-08-17T16:26:11.292Z,29.30
2018-08-17T16:28:38.958Z,28.99
2018-08-17T16:31:07.294Z,28.17
2018-08-17T16:33:39.431Z,27.26
2018-08-17T16:36:07.244Z,26.50
2018-08-17T16:38:35.475Z,25.95
2018-08-17T16:41:03.485Z,25.54
2018-08-17T16:43:32.179Z,25.17
2018-08-17T16:45:59.837Z,24.86
2018-08-17T16:48:27.850Z,24.58
2018-08-17T16:50:56.666Z,24.31
2018-08-17T16:53:29.304Z,24.10
2018-08-17T16:55:57.300Z,23.92
2018-08-17T16:58:26.605Z,23.77
2018-08-17T17:00:54.385Z,23.60
2018-08-17T17:03:23.061Z,23.47
2018-08-17T17:05:50.696Z,23.32
2018-08-17T17:08:21.493Z,23.20
2018-08-17T17:10:49.401Z,23.09
2018-08-17T17:13:19.384Z,22.99
2018-08-17T17:15:47.995Z,22.91
2018-08-17T17:18:16.037Z,22.82
2018-08-17T17:20:43.753Z,22.69
2018-08-17T17:23:13.533Z,22.58
2018-08-17T17:25:41.731Z,22.48
2018-08-17T17:28:10.269Z,22.37
2018-08-17T17:30:42.968Z,22.25
2018-08-17T17:33:11.410Z,22.16
2018-08-17T17:35:40.693Z,22.09
2018-08-17T17:38:09.791Z,21.99
2018-08-17T17:40:38.753Z,21.92
2018-08-17T17:43:07.715Z,21.85
2018-08-17T17:45:35.739Z,21.80
2018-08-17T17:48:04.086Z,21.74
2018-08-17T17:50:32.003Z,21.70
2018-08-17T17:53:00.534Z,21.65
2018-08-17T17:55:28.852Z,21.61
2018-08-17T17:57:58.500Z,21.57
2018-08-17T18:00:28.299Z,21.52
2018-08-17T18:02:56.517Z,21.48
2018-08-17T18:05:24.184Z,21.41
2018-08-17T18:07:53.756Z,21.36
2018-08-17T18:10:22.533Z,21.30
2018-08-17T18:12:51.211Z,21.25
2018-08-17T18:15:19.927Z,21.20
2018-08-17T18:17:49.286Z,21.13
2018-08-17T18:20:17.782Z,21.06
2018-08-17T18:22:45.571Z,20.99
2018-08-17T18:25:18.348Z,20.92
2018-08-17T18:27:46.742Z,20.85
2018-08-17T18:30:16.045Z,20.75
2018-08-17T18:32:43.998Z,20.64
2018-08-17T18:35:13.049Z,20.54
2018-08-17T18:37:41.418Z,20.43
2018-08-17T18:40:11.375Z,20.33
2018-08-17T18:42:39.926Z,20.22
2018-08-17T18:45:07.852Z,20.11
2018-08-17T18:47:35.825Z,19.99
2018-08-17T18:50:04.016Z,19.90
2018-08-17T18:52:31.665Z,19.78
2018-08-17T18:54:59.657Z,19.68
2018-08-17T18:57:27.365Z,19.59
2018-08-17T18:59:55.807Z,19.49
2018-08-17T19:02:23.707Z,19.39
2018-08-17T19:04:51.535Z,19.30
2018-08-17T19:07:19.138Z,19.21
2018-08-17T19:09:48.355Z,19.11
2018-08-17T19:12:18.451Z,19.02
2018-08-17T19:14:50.336Z,18.94
2018-08-17T19:17:23.299Z,18.88
2018-08-17T19:19:53.677Z,18.83
2018-08-17T19:22:21.959Z,18.76
2018-08-17T19:24:50.488Z,18.69
2018-08-17T19:27:24.211Z,18.63
2018-08-17T19:29:54.469Z,18.58
2018-08-17T19:32:22.671Z,18.54
2018-08-17T19:34:50.307Z,18.49
2018-08-17T19:37:25.081Z,18.45
2018-08-17T19:39:53.850Z,18.40
2018-08-17T19:42:21.518Z,18.34
2018-08-17T19:44:49.161Z,18.27
2018-08-17T19:47:17.642Z,18.22
2018-08-17T19:49:46.529Z,18.17
2018-08-17T19:52:14.720Z,18.13
2018-08-17T19:54:43.329Z,18.05
2018-08-17T19:57:11.839Z,17.98
2018-08-17T19:59:41.439Z,17.91
2018-08-17T20:02:10.362Z,17.81
2018-08-17T20:04:38.058Z,17.72
2018-08-17T20:07:05.720Z,17.64
2018-08-17T20:09:36.196Z,17.58
2018-08-17T20:12:03.827Z,17.53
2018-08-17T20:14:31.616Z,17.48
2018-08-17T20:16:59.552Z,17.40
2018-08-17T20:19:32.207Z,17.29
2018-08-17T20:22:03.582Z,17.17
2018-08-17T20:24:32.442Z,17.06
2018-08-17T20:27:00.264Z,16.95
2018-08-17T20:29:29.118Z,16.87
2018-08-17T20:31:57.717Z,16.81
2018-08-17T20:34:25.455Z,16.77
2018-08-17T20:36:53.142Z,16.71
2018-08-17T20:39:21.071Z,16.66
2018-08-17T20:41:49.598Z,16.64
2018-08-17T20:44:17.250Z,16.66
2018-08-17T20:46:46.382Z,16.68
2018-08-17T20:49:14.022Z,16.69
2018-08-17T20:51:46.324Z,16.66
2018-08-17T20:54:14.259Z,16.64
2018-08-17T20:56:41.899Z,16.60
2018-08-17T20:59:09.497Z,16.54
2018-08-17T21:01:40.500Z,16.50
2018-08-17T21:04:09.037Z,16.47
2018-08-17T21:06:37.439Z,16.45
2018-08-17T21:09:09.093Z,16.42
2018-08-17T21:11:37.639Z,16.40
2018-08-17T21:14:05.590Z,16.35
2018-08-17T21:16:33.753Z,16.29
2018-08-17T21:19:01.670Z,16.24
2018-08-17T21:21:29.596Z,16.18
2018-08-17T21:23:58.512Z,16.13
2018-08-17T21:26:26.689Z,16.06
2018-08-17T21:28:54.370Z,16.03
2018-08-17T21:31:22.861Z,15.98
2018-08-17T21:33:50.511Z,15.94
2018-08-17T21:36:18.313Z,15.92
2018-08-17T21:38:46.346Z,15.91
2018-08-17T21:41:13.935Z,15.87
2018-08-17T21:43:42.354Z,15.84
2018-08-17T21:46:12.241Z,15.81
2018-08-17T21:48:39.844Z,15.78
2018-08-17T21:51:08.326Z,15.74
2018-08-17T21:53:39.232Z,15.70
2018-08-17T21:56:07.768Z,15.62
2018-08-17T21:58:37.365Z,15.53
2018-08-17T22:01:05.451Z,15.45
2018-08-17T22:03:35.247Z,15.38
2018-08-17T22:06:02.864Z,15.31
2018-08-17T22:08:30.805Z,15.27
2018-08-17T22:11:01.374Z,15.24
2018-08-17T22:13:30.041Z,15.21
2018-08-17T22:15:57.880Z,15.14
2018-08-17T22:18:25.537Z,15.07
2018-08-17T22:20:53.383Z,15.04
2018-08-17T22:23:21.960Z,15.04
2018-08-17T22:25:49.572Z,15.03
2018-08-17T22:28:17.660Z,15.06
2018-08-17T22:30:45.860Z,15.08
2018-08-17T22:33:14.276Z,15.12
2018-08-17T22:35:43.347Z,15.13
2018-08-17T22:38:11.613Z,15.14
2018-08-17T22:40:40.232Z,15.14
2018-08-17T22:43:08.709Z,15.16
2018-08-17T22:45:36.305Z,15.18
2018-08-17T22:48:03.932Z,15.22
2018-08-17T22:50:31.828Z,15.24
2018-08-17T22:53:00.243Z,15.28
2018-08-17T22:55:27.850Z,15.33
2018-08-17T22:57:56.108Z,15.38
2018-08-17T23:00:24.289Z,15.43
2018-08-17T23:02:53.089Z,15.48
2018-08-17T23:05:23.226Z,15.53
2018-08-17T23:07:50.864Z,15.57
2018-08-17T23:10:21.292Z,15.61
2018-08-17T23:12:50.359Z,15.64
2018-08-17T23:15:19.553Z,15.65
2018-08-17T23:18:03.310Z,15.70
2018-08-17T23:20:37.459Z,15.76
2018-08-17T23:23:06.064Z,15.79
2018-08-17T23:25:35.482Z,15.78
2018-08-17T23:28:04.607Z,15.79
2018-08-17T23:30:32.334Z,15.80
2018-08-17T23:33:00.029Z,15.78
2018-08-17T23:35:27.931Z,15.72
2018-08-17T23:37:55.527Z,15.66
2018-08-17T23:40:23.143Z,15.63
2018-08-17T23:42:51.462Z,15.56
2018-08-17T23:45:19.797Z,15.49
2018-08-17T23:47:47.440Z,15.44
2018-08-17T23:50:15.968Z,15.36
2018-08-17T23:52:43.857Z,15.28
2018-08-17T23:55:11.831Z,15.24
2018-08-17T23:57:39.440Z,15.18
